Time;durP1;ratioP1;P1;durP2;ratioP2;P2;SDS_P1;SDS_P2;PMS_P1;PMS_P2;Temp;Humidity;BMP_temperature;BMP_pressure;BME280_temperature;BME280_humidity;BME280_pressure;Samples;Min_cycle;Max_cycle;Signal;HPM_P1;HPM_P2
2022/01/26 00:00:55;;;;;;;59.03;23.88;;;;;;;0.55;98.59;102966.00;5020200;28;20053;-63
2022/01/26 00:06:23;;;;;;;60.45;23.75;;;;;;;0.31;99.22;102969.94;5039591;28;19920;-62
2022/01/26 00:08:50;;;;;;;62.53;24.33;;;;;;;0.77;98.67;102965.81;5023514;28;20053;-62
2022/01/26 00:11:17;;;;;;;55.42;23.58;;;;;;;0.49;97.67;102972.22;5024391;28;20045;-62
2022/01/26 00:13:45;;;;;;;52.45;24.38;;;;;;;0.29;97.98;102973.84;5031537;28;20049;-62
2022/01/26 00:16:25;;;;;;;53.42;23.38;;;;;;;0.18;97.96;102979.75;5035823;28;20045;-62
2022/01/26 00:18:58;;;;;;;58.65;23.58;;;;;;;0.18;98.07;102977.91;5018184;28;20046;-63
2022/01/26 00:21:47;;;;;;;55.85;23.75;;;;;;;0.21;97.84;102968.56;5027560;28;21812;-62
2022/01/26 00:29:57;;;;;;;53.58;23.42;;;;;;;0.20;96.38;102962.28;5037819;28;20045;-62
2022/01/26 00:41:03;;;;;;;49.08;25.33;;;;;;;0.78;95.54;102972.94;5033547;28;20068;-63
2022/01/26 00:43:30;;;;;;;53.70;23.38;;;;;;;0.79;95.06;102971.91;5026621;28;20049;-63
2022/01/26 00:45:59;;;;;;;51.47;24.90;;;;;;;0.67;94.57;102978.03;5032569;28;20392;-64
2022/01/26 00:48:30;;;;;;;52.50;24.95;;;;;;;0.92;94.66;102973.91;5032924;28;20045;-64
2022/01/26 00:51:01;;;;;;;52.58;25.60;;;;;;;0.93;94.80;102973.69;5032969;28;20057;-63
2022/01/26 00:53:39;;;;;;;51.92;25.08;;;;;;;0.86;93.06;102977.38;5034121;28;20076;-63
2022/01/26 00:56:08;;;;;;;54.55;25.33;;;;;;;0.87;93.51;102973.66;5035090;28;20052;-62
2022/01/26 00:58:35;;;;;;;55.13;25.75;;;;;;;0.88;93.69;102978.88;5033449;28;20061;-62
2022/01/26 01:01:04;;;;;;;44.88;23.23;;;;;;;0.76;93.36;102980.44;5034777;28;20053;-62
2022/01/26 01:03:34;;;;;;;56.47;26.85;;;;;;;0.96;93.53;102970.59;5033555;28;20058;-63
2022/01/26 01:06:11;;;;;;;54.88;25.50;;;;;;;0.77;92.96;102973.97;5040681;28;20048;-62
2022/01/26 01:08:41;;;;;;;51.72;25.02;;;;;;;0.93;93.07;102970.13;5035037;28;20500;-62
2022/01/26 01:11:09;;;;;;;52.60;25.60;;;;;;;1.21;92.50;102973.72;5034294;28;20049;-62
2022/01/26 01:13:39;;;;;;;53.47;26.40;;;;;;;1.13;92.34;102966.56;5032700;28;20057;-62
2022/01/26 01:16:09;;;;;;;59.00;26.10;;;;;;;0.98;92.43;102962.25;5034295;28;20053;-62
2022/01/26 01:29:36;;;;;;;55.38;24.85;;;;;;;0.73;93.92;102966.41;5033343;28;20053;-60
2022/01/26 01:32:11;;;;;;;57.65;25.48;;;;;;;0.52;94.79;102969.13;5032353;28;20052;-60
2022/01/26 01:34:39;;;;;;;53.40;24.55;;;;;;;0.72;95.37;102972.84;5046524;28;20049;-60
2022/01/26 01:37:10;;;;;;;55.65;25.65;;;;;;;1.12;94.53;102974.91;5035628;28;20064;-62
2022/01/26 01:39:37;;;;;;;50.70;23.75;;;;;;;0.98;92.87;102970.38;5034462;28;20060;-61
2022/01/26 01:42:07;;;;;;;54.60;25.02;;;;;;;0.93;93.36;102968.28;5033907;28;20064;-61
2022/01/26 01:44:35;;;;;;;52.45;25.75;;;;;;;1.04;93.21;102965.03;5034173;28;20049;-60
2022/01/26 01:47:05;;;;;;;51.20;25.45;;;;;;;1.11;92.17;102963.22;5034099;28;20416;-61
2022/01/26 01:49:32;;;;;;;58.30;25.80;;;;;;;1.48;91.88;102974.75;5033808;28;20050;-61
2022/01/26 01:52:03;;;;;;;53.72;24.98;;;;;;;1.11;91.44;102978.66;5032857;28;20288;-62
2022/01/26 01:54:32;;;;;;;53.35;24.40;;;;;;;0.78;92.32;102983.78;5032111;28;20053;-62
2022/01/26 01:56:59;;;;;;;57.10;25.23;;;;;;;0.89;92.57;102985.97;5025866;28;20041;-59
2022/01/26 01:59:32;;;;;;;55.67;26.73;;;;;;;0.85;93.34;102986.56;5033060;28;20049;-60
2022/01/26 02:02:00;;;;;;;54.47;25.00;;;;;;;0.87;92.90;102988.03;5021688;28;20069;-60
2022/01/26 02:04:28;;;;;;;53.50;25.60;;;;;;;0.74;93.45;102981.66;5033311;28;20050;-59
2022/01/26 02:06:56;;;;;;;52.70;25.15;;;;;;;1.01;92.58;102986.31;5040111;28;20064;-62
2022/01/26 02:09:23;;;;;;;54.08;25.52;;;;;;;1.01;91.85;102983.59;5033692;28;20061;-61
2022/01/26 02:11:54;;;;;;;49.05;24.05;;;;;;;1.04;90.02;102985.91;5016393;28;20080;-60
2022/01/26 02:53:24;;;;;;;45.00;22.45;;;;;;;1.56;87.55;102974.59;5035619;28;20737;-61
2022/01/26 02:55:49;;;;;;;41.15;21.23;;;;;;;1.43;86.27;102975.34;5035004;28;20049;-60
2022/01/26 03:01:33;;;;;;;46.22;21.70;;;;;;;1.64;86.28;102975.28;5036962;28;20057;-61
2022/01/26 03:06:38;;;;;;;42.22;20.70;;;;;;;1.47;85.98;102973.91;5036080;28;20412;-61
2022/01/26 03:09:11;;;;;;;42.10;22.02;;;;;;;1.12;87.37;102970.31;5020922;28;20058;-61
2022/01/26 03:11:41;;;;;;;44.13;22.02;;;;;;;1.19;87.56;102962.22;5036107;28;20513;-62
2022/01/26 03:14:48;;;;;;;43.22;21.73;;;;;;;1.32;86.66;102965.06;5036553;28;20056;-63
2022/01/26 03:17:26;;;;;;;45.15;21.83;;;;;;;1.21;88.02;102957.44;5036787;28;20053;-62
2022/01/26 03:19:59;;;;;;;42.88;20.77;;;;;;;1.14;87.44;102967.41;5035176;28;20060;-62
2022/01/26 03:38:08;;;;;;;41.45;20.42;;;;;;;1.52;86.47;102952.44;5034634;28;20155;-62
2022/01/26 03:40:38;;;;;;;43.25;20.67;;;;;;;1.38;86.19;102956.09;5036741;28;20432;-60
2022/01/26 03:43:06;;;;;;;38.42;18.85;;;;;;;1.63;86.36;102945.59;5036051;28;20045;-60
2022/01/26 03:45:33;;;;;;;44.80;20.45;;;;;;;1.77;85.42;102941.91;5034484;28;20057;-60
2022/01/26 03:48:00;;;;;;;44.25;20.58;;;;;;;1.93;84.55;102942.44;5034878;28;20060;-60
2022/01/26 03:50:28;;;;;;;39.28;18.67;;;;;;;1.71;84.25;102943.56;5036868;28;20062;-60
2022/01/26 03:52:55;;;;;;;45.88;20.17;;;;;;;1.76;84.88;102954.66;5036049;28;20064;-61
2022/01/26 03:55:23;;;;;;;42.33;19.77;;;;;;;1.72;84.61;102958.00;5047132;28;20076;-61
2022/01/26 03:57:50;;;;;;;45.13;19.88;;;;;;;1.75;84.38;102957.59;5034926;28;20053;-61
2022/01/26 04:00:17;;;;;;;43.35;20.10;;;;;;;1.77;84.58;102959.06;5037568;28;20041;-61
2022/01/26 04:02:45;;;;;;;45.30;19.63;;;;;;;1.73;85.10;102963.22;5034342;28;20057;-60
2022/01/26 04:05:12;;;;;;;44.97;21.48;;;;;;;1.67;84.83;102960.47;5036780;28;20404;-61
2022/01/26 04:07:41;;;;;;;50.03;21.95;;;;;;;1.78;84.92;102958.00;5039199;28;20049;-61
2022/01/26 04:10:30;;;;;;;52.63;22.80;;;;;;;2.05;83.79;102962.56;5035844;28;20056;-61
2022/01/26 04:12:56;;;;;;;47.90;20.60;;;;;;;2.14;83.27;102947.72;5035598;28;20053;-61
2022/01/26 04:15:30;;;;;;;49.60;23.17;;;;;;;2.04;83.07;102958.13;5035504;28;20076;-60
2022/01/26 04:17:59;;;;;;;55.70;23.55;;;;;;;2.44;82.78;102941.97;5035860;28;20049;-61
2022/01/26 04:20:29;;;;;;;49.70;22.98;;;;;;;2.33;81.82;102948.00;5035784;28;20046;-61
2022/01/26 04:23:10;;;;;;;51.90;24.40;;;;;;;2.23;82.24;102938.34;5035323;28;20072;-61
2022/01/26 04:25:40;;;;;;;53.15;24.55;;;;;;;2.23;82.26;102943.78;5034787;28;20045;-62
2022/01/26 04:28:12;;;;;;;56.25;23.88;;;;;;;2.45;81.88;102936.31;5035236;28;20507;-64
2022/01/26 04:30:39;;;;;;;54.40;24.55;;;;;;;2.41;81.45;102940.50;5035471;28;20053;-60
2022/01/26 04:33:07;;;;;;;59.90;26.42;;;;;;;2.56;81.38;102948.47;5034129;28;20064;-61
2022/01/26 04:35:35;;;;;;;58.30;26.67;;;;;;;2.09;81.83;102942.06;5035713;28;20495;-61
2022/01/26 04:40:48;;;;;;;66.85;29.08;;;;;;;2.08;82.81;102940.41;5034565;28;20045;-62
2022/01/26 04:43:20;;;;;;;69.35;29.45;;;;;;;2.34;82.41;102931.47;5018259;28;20057;-60
2022/01/26 04:45:48;;;;;;;64.05;28.08;;;;;;;2.38;81.14;102931.91;5034818;28;20068;-60
2022/01/26 04:48:15;;;;;;;62.70;26.83;;;;;;;2.48;80.57;102940.50;5034766;28;20038;-61
2022/01/26 04:50:43;;;;;;;65.43;27.80;;;;;;;2.46;80.65;102937.19;5033087;28;20622;-61
2022/01/26 04:53:10;;;;;;;72.40;30.45;;;;;;;2.25;80.66;102928.09;5033081;28;20056;-61
2022/01/26 04:55:37;;;;;;;69.70;30.75;;;;;;;2.44;80.87;102936.53;5033031;28;20050;-60
2022/01/26 04:58:04;;;;;;;65.78;27.40;;;;;;;2.77;79.58;102942.88;5016940;28;20063;-61
2022/01/26 05:00:32;;;;;;;62.83;28.02;;;;;;;2.92;78.00;102938.91;5029289;28;20057;-61
2022/01/26 05:02:59;;;;;;;72.95;31.70;;;;;;;2.38;78.83;102934.63;5035201;28;20057;-62
2022/01/26 05:05:27;;;;;;;65.10;30.27;;;;;;;2.19;79.87;102934.38;5036722;28;20049;-60
2022/01/26 05:07:58;;;;;;;68.65;30.05;;;;;;;2.29;80.65;102926.66;5017932;28;20049;-61
2022/01/26 05:10:25;;;;;;;69.70;31.27;;;;;;;2.07;80.58;102938.72;5040145;28;20064;-60
2022/01/26 05:12:57;;;;;;;67.55;29.33;;;;;;;1.91;81.49;102944.50;5044455;28;20049;-61
2022/01/26 05:15:26;;;;;;;64.43;28.55;;;;;;;2.11;80.42;102934.53;5047325;28;20068;-60
2022/01/26 05:17:53;;;;;;;68.60;30.63;;;;;;;2.03;80.47;102929.31;5033897;28;20057;-62
2022/01/26 05:20:20;;;;;;;62.45;29.65;;;;;;;2.28;79.58;102927.69;5015821;28;20041;-60
2022/01/26 05:22:48;;;;;;;62.78;29.20;;;;;;;2.65;79.13;102933.66;5033706;28;20137;-61
2022/01/26 05:25:15;;;;;;;69.28;28.52;;;;;;;2.49;78.25;102939.47;5034387;28;20053;-61
2022/01/26 05:27:42;;;;;;;62.47;29.25;;;;;;;2.25;78.76;102930.84;5034352;28;20045;-62
2022/01/26 05:30:10;;;;;;;65.43;29.02;;;;;;;2.46;78.09;102924.38;5034034;28;20041;-61
2022/01/26 05:32:37;;;;;;;63.83;29.52;;;;;;;2.43;77.83;102926.69;5034448;28;20045;-60
2022/01/26 05:35:05;;;;;;;66.85;29.58;;;;;;;2.54;78.48;102929.66;5025943;28;20053;-60
2022/01/26 05:37:32;;;;;;;74.47;31.13;;;;;;;2.68;77.01;102923.19;5034391;28;20068;-61
2022/01/26 05:40:02;;;;;;;64.93;30.02;;;;;;;2.66;77.65;102921.72;5033573;28;20049;-62
2022/01/26 05:42:30;;;;;;;66.38;31.05;;;;;;;2.83;77.38;102914.81;5032202;28;20053;-62
2022/01/26 05:45:03;;;;;;;65.80;29.23;;;;;;;2.38;77.96;102911.00;5033670;28;20052;-61
2022/01/26 05:47:32;;;;;;;66.72;30.98;;;;;;;2.15;78.58;102911.34;5030408;28;20052;-61
2022/01/26 05:50:01;;;;;;;65.63;29.83;;;;;;;2.35;78.68;102924.16;5034128;28;20041;-60
2022/01/26 05:52:28;;;;;;;65.43;29.52;;;;;;;2.38;78.16;102921.88;5032717;28;20049;-62
2022/01/26 05:54:55;;;;;;;62.67;30.08;;;;;;;2.44;77.92;102912.06;5034175;28;20504;-61
2022/01/26 05:57:22;;;;;;;66.10;30.63;;;;;;;2.63;77.03;102922.13;5028607;28;20050;-62
2022/01/26 05:59:52;;;;;;;69.13;32.10;;;;;;;2.69;77.41;102918.56;5029695;28;20034;-60
2022/01/26 06:02:20;;;;;;;68.15;33.00;;;;;;;2.71;77.41;102911.88;5033256;28;20068;-62
2022/01/26 06:04:47;;;;;;;71.88;32.63;;;;;;;2.71;76.98;102920.03;5038096;28;20049;-61
2022/01/26 06:07:15;;;;;;;69.32;31.13;;;;;;;2.46;77.47;102926.28;5038076;28;20049;-62
2022/01/26 06:09:42;;;;;;;71.30;32.40;;;;;;;2.17;79.71;102919.31;5034765;28;20056;-61
2022/01/26 06:12:10;;;;;;;72.65;32.38;;;;;;;2.23;79.42;102927.47;5036080;28;20136;-62
2022/01/26 06:14:37;;;;;;;67.88;30.00;;;;;;;2.28;78.96;102932.31;5037040;28;20064;-61
2022/01/26 06:17:04;;;;;;;71.45;31.60;;;;;;;2.17;80.16;102930.19;5033510;28;20049;-60
2022/01/26 06:19:31;;;;;;;72.15;30.55;;;;;;;2.09;80.31;102936.63;5034035;28;20037;-62
2022/01/26 06:21:59;;;;;;;73.28;32.33;;;;;;;1.89;80.76;102937.59;5030539;28;20058;-62
2022/01/26 06:24:29;;;;;;;76.20;32.38;;;;;;;1.63;81.10;102946.44;5017062;28;20058;-61
2022/01/26 06:26:57;;;;;;;67.85;31.20;;;;;;;2.04;81.06;102949.19;5037973;28;20052;-61
2022/01/26 06:29:24;;;;;;;74.03;33.72;;;;;;;2.15;80.13;102962.16;5039647;28;20053;-60
2022/01/26 06:31:52;;;;;;;75.65;31.20;;;;;;;1.94;79.84;102962.28;5037488;28;20057;-60
2022/01/26 06:34:20;;;;;;;76.30;33.35;;;;;;;1.80;81.36;102968.69;5037464;28;20048;-62
2022/01/26 06:36:47;;;;;;;72.95;33.70;;;;;;;1.98;81.38;102967.13;5037830;28;20060;-60
2022/01/26 06:39:15;;;;;;;74.25;34.15;;;;;;;2.21;80.41;102983.13;5038127;28;20060;-63
2022/01/26 06:42:22;;;;;;;71.45;31.45;;;;;;;1.84;81.04;102983.56;5037015;28;20136;-62
2022/01/26 06:45:47;;;;;;;76.30;32.88;;;;;;;2.14;81.36;102979.53;5038841;28;20063;-63
2022/01/26 06:51:44;;;;;;;82.60;34.90;;;;;;;2.15;79.77;102992.91;5031201;28;20041;-61
2022/01/26 06:54:11;;;;;;;79.78;33.33;;;;;;;1.93;80.64;102990.50;5037102;28;20049;-62
2022/01/26 06:56:39;;;;;;;75.10;33.30;;;;;;;1.93;81.23;102998.66;5036921;28;20049;-62
2022/01/26 06:59:06;;;;;;;78.72;33.88;;;;;;;2.13;81.26;103003.16;5052269;28;20053;-64
2022/01/26 07:01:33;;;;;;;79.80;33.60;;;;;;;2.16;81.20;102989.13;5035856;28;20073;-62
2022/01/26 07:04:01;;;;;;;74.78;34.85;;;;;;;2.29;79.72;102994.66;5040053;28;20053;-64
2022/01/26 07:06:30;;;;;;;83.82;35.40;;;;;;;2.25;80.70;102997.94;5038161;28;20052;-62
2022/01/26 07:08:57;;;;;;;75.70;34.42;;;;;;;2.24;80.75;102997.13;5031716;28;20057;-62
2022/01/26 07:11:25;;;;;;;79.70;35.53;;;;;;;2.26;80.73;102988.78;5034331;28;20057;-62
2022/01/26 07:13:54;;;;;;;74.45;34.72;;;;;;;2.41;79.43;102994.88;5032630;28;20093;-63
2022/01/26 07:21:52;;;;;;;83.43;35.40;;;;;;;2.35;79.38;102992.16;5021168;28;20041;-63
2022/01/26 07:24:19;;;;;;;75.35;34.67;;;;;;;2.65;79.17;102986.16;5035976;28;20045;-62
2022/01/26 07:26:52;;;;;;;75.10;33.28;;;;;;;2.51;78.61;102989.88;5029709;28;20388;-63
2022/01/26 07:29:22;;;;;;;77.75;35.60;;;;;;;2.34;79.86;102974.16;5033737;28;20512;-63
2022/01/26 07:31:51;;;;;;;79.20;35.08;;;;;;;2.40;79.64;102987.78;5031417;28;20036;-63
2022/01/26 07:34:23;;;;;;;77.63;35.95;;;;;;;2.74;78.90;102992.25;5030332;28;20041;-62
2022/01/26 07:36:54;;;;;;;87.93;40.60;;;;;;;2.96;77.74;102996.50;5027938;28;20092;-61
2022/01/26 07:39:42;;;;;;;77.15;33.08;;;;;;;2.78;77.56;103009.84;5021775;28;20038;-62
2022/01/26 07:42:11;;;;;;;80.75;35.63;;;;;;;2.69;77.50;103008.34;5027879;28;20508;-62
2022/01/26 07:44:45;;;;;;;77.13;34.80;;;;;;;2.54;78.45;102996.81;5032851;28;20152;-62
2022/01/26 07:47:12;;;;;;;79.78;35.90;;;;;;;2.94;77.68;102999.41;5022870;28;20050;-64
2022/01/26 07:49:39;;;;;;;83.57;35.67;;;;;;;2.83;77.38;102997.28;5035187;28;20053;-61
2022/01/26 07:52:07;;;;;;;79.60;36.83;;;;;;;3.31;76.75;103003.41;5020376;28;20061;-63
2022/01/26 07:54:34;;;;;;;78.22;35.55;;;;;;;2.88;76.56;103010.28;5024134;28;20049;-61
2022/01/26 07:57:01;;;;;;;83.53;35.53;;;;;;;2.88;77.33;103019.28;5024990;28;20041;-61
2022/01/26 07:59:29;;;;;;;79.80;36.25;;;;;;;2.66;78.00;103008.78;5042092;28;20057;-62
2022/01/26 08:01:56;;;;;;;83.55;36.33;;;;;;;2.66;78.37;103015.06;5032234;28;20041;-61
2022/01/26 08:04:24;;;;;;;78.00;33.88;;;;;;;2.68;78.38;103020.28;5023754;28;20049;-63
2022/01/26 08:06:52;;;;;;;80.65;34.60;;;;;;;2.84;77.42;103028.91;5033097;28;20049;-61
2022/01/26 08:09:19;;;;;;;80.20;35.75;;;;;;;3.12;76.78;103013.25;5026884;28;20049;-62
2022/01/26 08:11:46;;;;;;;80.55;36.17;;;;;;;3.06;76.52;103010.53;5016862;28;20042;-61
2022/01/26 08:14:13;;;;;;;79.90;35.30;;;;;;;3.13;76.24;102995.03;5021627;28;20042;-61
2022/01/26 08:16:41;;;;;;;77.65;35.88;;;;;;;3.18;76.20;102987.06;5032206;28;20423;-61
2022/01/26 08:19:08;;;;;;;82.60;39.35;;;;;;;3.35;75.90;102981.00;5034067;28;20052;-62
2022/01/26 08:21:36;;;;;;;72.97;32.83;;;;;;;3.34;75.93;102982.06;5024699;28;20049;-64
2022/01/26 08:24:12;;;;;;;69.13;31.55;;;;;;;3.45;75.61;102992.28;5028854;28;20069;-61
2022/01/26 08:26:45;;;;;;;74.10;32.70;;;;;;;3.47;75.44;102992.91;5050414;28;20057;-62
2022/01/26 08:29:26;;;;;;;68.43;32.13;;;;;;;3.26;75.81;102986.88;5031639;28;20073;-61
2022/01/26 08:34:56;;;;;;;69.63;31.98;;;;;;;3.65;75.30;102980.53;5032285;28;20409;-62
2022/01/26 08:37:24;;;;;;;73.72;32.55;;;;;;;3.72;74.81;102973.16;5023102;28;20046;-61
2022/01/26 08:39:51;;;;;;;67.35;30.45;;;;;;;4.26;75.99;102987.25;5023481;28;20454;-59
2022/01/26 08:42:18;;;;;;;68.28;30.70;;;;;;;4.20;74.32;102980.78;5031021;28;20037;-62
2022/01/26 08:44:45;;;;;;;75.03;33.53;;;;;;;4.04;74.37;102967.66;5029522;28;20049;-63
2022/01/26 08:47:21;;;;;;;70.50;33.15;;;;;;;3.93;73.88;102975.63;5021109;28;20049;-62
2022/01/26 08:49:52;;;;;;;74.88;33.35;;;;;;;3.90;73.53;102989.69;5020722;28;20141;-62
2022/01/26 08:52:19;;;;;;;70.35;32.05;;;;;;;3.75;74.48;102997.28;5016479;28;20773;-62
2022/01/26 08:54:47;;;;;;;70.00;33.67;;;;;;;3.91;74.10;102994.94;5027777;28;20045;-64
2022/01/26 08:57:14;;;;;;;77.88;34.13;;;;;;;4.12;73.82;102997.38;5032492;28;20045;-63
2022/01/26 08:59:41;;;;;;;73.55;32.30;;;;;;;4.07;73.31;103001.81;5032917;28;20065;-63
2022/01/26 09:02:09;;;;;;;71.85;33.90;;;;;;;4.03;72.95;103004.13;5033450;28;20054;-64
2022/01/26 09:04:37;;;;;;;75.78;34.05;;;;;;;4.18;73.08;103007.44;5033390;28;20064;-62
2022/01/26 09:07:04;;;;;;;73.72;33.45;;;;;;;3.50;73.66;103013.47;5028530;28;20053;-63
2022/01/26 09:09:42;;;;;;;74.75;32.67;;;;;;;3.52;75.02;103010.53;5027756;28;20045;-63
2022/01/26 09:12:15;;;;;;;73.65;33.67;;;;;;;3.55;74.73;103018.28;5029885;28;20045;-64
2022/01/26 09:14:43;;;;;;;77.30;34.72;;;;;;;3.47;74.45;103013.88;5028933;28;20068;-62
2022/01/26 09:17:11;;;;;;;69.75;32.90;;;;;;;3.80;74.67;103006.47;5021863;28;20049;-63
2022/01/26 09:19:42;;;;;;;70.65;32.47;;;;;;;4.06;73.93;103008.31;5021371;28;20060;-62
2022/01/26 09:22:12;;;;;;;74.57;34.63;;;;;;;3.78;73.96;103024.97;5017263;28;20049;-62
2022/01/26 09:24:41;;;;;;;75.15;34.33;;;;;;;4.15;73.41;103026.94;5028843;28;20053;-62
2022/01/26 09:27:10;;;;;;;76.22;33.65;;;;;;;3.73;73.69;103032.09;5023631;28;20045;-63
2022/01/26 09:29:37;;;;;;;74.72;33.80;;;;;;;3.58;75.39;103032.31;5021086;28;20057;-63
2022/01/26 09:32:05;;;;;;;75.43;35.50;;;;;;;3.71;75.16;103035.03;5013139;28;20041;-63
2022/01/26 09:34:35;;;;;;;73.55;34.25;;;;;;;3.98;74.51;103036.66;5020730;28;20049;-62
2022/01/26 09:37:04;;;;;;;79.30;35.10;;;;;;;3.84;74.41;103047.78;5033421;28;20054;-63
2022/01/26 09:39:32;;;;;;;78.32;35.83;;;;;;;4.17;73.95;103041.22;5031175;28;20052;-63
2022/01/26 09:42:00;;;;;;;81.72;36.42;;;;;;;3.67;74.93;103030.19;5028360;28;20065;-63
2022/01/26 09:44:29;;;;;;;81.40;34.85;;;;;;;4.13;74.67;103026.31;5022579;28;20054;-63
2022/01/26 09:46:58;;;;;;;77.80;34.67;;;;;;;4.22;73.60;103035.13;5030203;28;20057;-62
2022/01/26 09:49:31;;;;;;;77.37;34.93;;;;;;;4.25;73.67;103034.69;5009692;28;20069;-64
2022/01/26 09:52:07;;;;;;;78.97;35.88;;;;;;;4.49;73.12;103051.19;5029017;28;20300;-63
2022/01/26 09:54:35;;;;;;;80.80;34.80;;;;;;;3.47;75.49;103063.75;5019164;28;20060;-63
2022/01/26 09:57:22;;;;;;;76.95;32.85;;;;;;;3.28;76.64;103074.63;5033939;28;20057;-63
2022/01/26 09:59:49;;;;;;;79.38;34.95;;;;;;;3.65;76.94;103067.72;5024672;28;20050;-62
2022/01/26 10:02:35;;;;;;;75.40;32.63;;;;;;;3.61;76.03;103067.31;5019761;28;20117;-63
2022/01/26 10:05:09;;;;;;;83.38;35.00;;;;;;;4.00;76.05;103072.72;5028116;28;20443;-64
2022/01/26 10:07:54;;;;;;;72.18;33.25;;;;;;;4.20;75.05;103061.78;5044535;28;20057;-63
2022/01/26 10:15:56;;;;;;;74.65;33.60;;;;;;;3.56;76.16;103069.00;5035543;28;20533;-63
2022/01/26 10:18:23;;;;;;;75.38;32.08;;;;;;;3.74;77.00;103070.03;5034471;28;20500;-63
2022/01/26 10:20:59;;;;;;;68.68;32.13;;;;;;;3.99;75.94;103070.22;5037365;28;20732;-63
2022/01/26 10:23:28;;;;;;;71.68;32.92;;;;;;;3.94;75.77;103067.28;5022218;28;20054;-64
2022/01/26 10:26:16;;;;;;;77.55;33.03;;;;;;;4.25;74.65;103051.88;5024072;28;20041;-62
2022/01/26 10:28:56;;;;;;;65.30;31.30;;;;;;;4.32;75.07;103058.16;5028032;28;20073;-62
2022/01/26 10:31:34;;;;;;;74.70;34.63;;;;;;;3.80;76.03;103060.19;5024482;28;20064;-64
2022/01/26 10:34:18;;;;;;;77.00;32.70;;;;;;;3.94;75.92;103062.66;5030545;28;20050;-62
2022/01/26 10:36:53;;;;;;;69.00;32.03;;;;;;;4.14;75.80;103043.53;5024490;28;20052;-62
2022/01/26 10:39:28;;;;;;;72.80;32.13;;;;;;;4.32;75.53;103041.78;5020700;28;20049;-62
2022/01/26 10:42:00;;;;;;;71.30;33.30;;;;;;;4.55;74.59;103042.09;5029511;28;20046;-62
2022/01/26 10:44:36;;;;;;;74.75;32.05;;;;;;;4.52;74.12;103041.72;5011156;28;20042;-63
2022/01/26 10:47:05;;;;;;;69.50;33.25;;;;;;;4.51;74.01;103064.59;5019066;28;20061;-62
2022/01/26 10:52:31;;;;;;;74.57;33.23;;;;;;;4.27;74.95;103049.78;5037815;28;20377;-63
2022/01/26 10:54:58;;;;;;;74.28;32.10;;;;;;;4.01;76.23;103052.56;5021931;28;20864;-62
2022/01/26 10:57:26;;;;;;;75.63;33.17;;;;;;;4.06;76.89;103041.03;5026230;28;20543;-63
2022/01/26 10:59:53;;;;;;;72.50;31.63;;;;;;;4.37;76.05;103028.34;5023292;28;20050;-63
2022/01/26 11:02:29;;;;;;;74.38;31.63;;;;;;;4.60;75.23;103036.03;5024700;28;20049;-63
2022/01/26 11:04:57;;;;;;;72.63;33.05;;;;;;;4.36;75.15;103032.13;5030845;28;20041;-63
2022/01/26 11:07:33;;;;;;;77.25;33.72;;;;;;;4.42;75.63;103044.91;5020828;28;20061;-57
2022/01/26 11:10:03;;;;;;;77.30;33.67;;;;;;;4.40;75.08;103025.19;5026686;28;20053;-62
2022/01/26 11:12:31;;;;;;;70.60;31.70;;;;;;;4.59;75.56;103020.69;5026593;28;20049;-64
2022/01/26 11:15:05;;;;;;;72.93;31.25;;;;;;;4.85;74.60;103017.78;5031351;28;20061;-65
2022/01/26 11:17:37;;;;;;;69.05;30.75;;;;;;;4.94;74.05;103015.63;5034693;28;20053;-64
2022/01/26 11:20:21;;;;;;;66.45;31.85;;;;;;;4.51;75.29;103019.06;5035729;28;20049;-64
2022/01/26 11:22:57;;;;;;;68.32;32.38;;;;;;;4.68;75.31;103013.91;5036557;28;20688;-64
2022/01/26 11:25:27;;;;;;;74.07;31.70;;;;;;;4.58;74.99;103003.47;5031576;28;20057;-63
2022/01/26 11:27:55;;;;;;;70.80;32.58;;;;;;;4.74;75.48;103001.28;5037058;28;20049;-64
2022/01/26 11:30:40;;;;;;;66.45;31.05;;;;;;;4.55;75.32;103001.16;5021104;28;20049;-63
2022/01/26 11:33:18;;;;;;;62.53;28.30;;;;;;;4.51;75.50;103004.56;5032357;28;20087;-64
2022/01/26 11:35:48;;;;;;;63.55;29.20;;;;;;;4.25;76.62;103004.69;5017174;28;20053;-67
2022/01/26 11:47:03;;;;;;;63.97;29.85;;;;;;;5.03;74.45;103000.66;5023023;28;20413;-65
2022/01/26 11:49:36;;;;;;;64.38;31.02;;;;;;;4.53;75.62;102991.56;5026980;28;20057;-64
2022/01/26 11:52:04;;;;;;;64.07;31.58;;;;;;;4.32;76.80;102981.75;5034962;28;20049;-63
2022/01/26 11:54:51;;;;;;;68.35;31.10;;;;;;;4.38;76.88;102964.53;5034186;28;20053;-64
2022/01/26 11:57:22;;;;;;;67.53;32.38;;;;;;;4.73;76.36;102958.66;5012374;28;20049;-64
2022/01/26 12:00:00;;;;;;;62.35;30.67;;;;;;;5.01;75.21;102957.19;5005488;28;20057;-64
2022/01/26 12:05:18;;;;;;;60.30;27.60;;;;;;;4.54;74.97;102965.91;5030245;28;20054;-64
2022/01/26 12:07:53;;;;;;;49.40;24.48;;;;;;;4.46;75.50;102947.91;5037477;28;20041;-64
2022/01/26 12:10:28;;;;;;;55.03;25.45;;;;;;;4.32;75.71;102949.03;5025465;28;20380;-65
2022/01/26 12:13:10;;;;;;;54.40;25.30;;;;;;;4.31;76.25;102947.38;5023578;28;20046;-64
2022/01/26 12:15:48;;;;;;;50.67;23.73;;;;;;;4.67;76.05;102952.22;5020677;28;20049;-64
2022/01/26 12:38:13;;;;;;;56.65;24.83;;;;;;;4.25;76.74;102933.78;5020629;28;20046;-64
2022/01/26 12:43:44;;;;;;;57.13;26.40;;;;;;;4.45;76.39;102943.50;5034337;28;20417;-63
2022/01/26 12:46:14;;;;;;;50.78;25.10;;;;;;;4.63;76.55;102944.66;5014626;28;20054;-64
2022/01/26 12:49:07;;;;;;;61.25;28.17;;;;;;;5.05;75.24;102952.13;5014592;28;20065;-64
2022/01/26 12:51:42;;;;;;;55.78;27.15;;;;;;;5.14;74.42;102956.25;5020416;28;20054;-64
2022/01/26 12:54:11;;;;;;;66.10;28.98;;;;;;;4.79;75.21;102955.06;5024039;28;20504;-63
2022/01/26 12:56:38;;;;;;;61.78;28.50;;;;;;;5.03;75.43;102955.09;5043194;28;20045;-65
2022/01/26 12:59:15;;;;;;;65.45;28.50;;;;;;;5.16;74.42;102959.59;5035208;28;20487;-64
2022/01/26 13:01:47;;;;;;;62.38;29.10;;;;;;;5.32;74.21;102948.94;5033668;28;20053;-64
2022/01/26 13:04:18;;;;;;;61.42;29.75;;;;;;;5.43;73.07;102942.75;5033437;28;20037;-64
2022/01/26 13:06:51;;;;;;;65.95;29.88;;;;;;;5.12;73.48;102941.97;5027167;28;20052;-62
2022/01/26 13:09:21;;;;;;;65.80;31.30;;;;;;;4.98;74.02;102935.81;5027728;28;20061;-64
2022/01/26 13:11:50;;;;;;;66.40;31.48;;;;;;;5.20;74.01;102933.50;5023768;28;20050;-63
2022/01/26 13:14:38;;;;;;;63.83;31.15;;;;;;;4.81;74.93;102928.38;5025468;28;20046;-64
2022/01/26 13:17:16;;;;;;;62.83;31.60;;;;;;;4.74;75.48;102928.44;5015320;28;20050;-63
2022/01/26 13:19:58;;;;;;;69.47;31.58;;;;;;;4.83;75.44;102918.06;5013538;28;20057;-64
2022/01/26 13:23:01;;;;;;;64.95;30.10;;;;;;;5.14;74.87;102927.06;5045450;28;20045;-62
2022/01/26 13:44:50;;;;;;;68.13;31.38;;;;;;;4.52;77.28;102930.66;5054363;28;20048;-63
2022/01/26 13:52:52;;;;;;;71.95;31.60;;;;;;;4.53;76.82;102935.06;5018753;28;20050;-64
2022/01/26 14:00:58;;;;;;;63.42;29.40;;;;;;;4.22;77.03;102932.31;5036716;28;20057;-63
2022/01/26 14:03:29;;;;;;;57.75;27.52;;;;;;;4.03;77.02;102925.06;5044054;28;20060;-63
2022/01/26 14:05:57;;;;;;;60.25;30.00;;;;;;;4.44;76.69;102925.47;5043866;28;20423;-62
2022/01/26 14:08:25;;;;;;;59.67;29.13;;;;;;;4.70;75.39;102913.53;5049630;28;20403;-63
2022/01/26 14:10:52;;;;;;;62.78;31.30;;;;;;;4.58;74.50;102910.66;5054504;28;20057;-62
2022/01/26 14:13:22;;;;;;;61.25;31.90;;;;;;;4.47;75.74;102910.53;5049538;28;20377;-62
2022/01/26 14:15:53;;;;;;;54.65;28.27;;;;;;;4.51;75.31;102909.91;5033637;28;20046;-63
2022/01/26 14:20:55;;;;;;;60.20;29.77;;;;;;;4.47;75.81;102907.81;5024365;28;20060;-63
2022/01/26 14:23:55;;;;;;;63.83;29.77;;;;;;;4.38;75.33;102906.41;5034029;28;20049;-62
2022/01/26 14:26:24;;;;;;;68.93;31.80;;;;;;;3.83;78.62;102916.13;5024761;28;20053;-63
2022/01/26 14:28:51;;;;;;;61.08;30.83;;;;;;;4.11;78.64;102900.28;5032799;28;20491;-64
2022/01/26 14:31:30;;;;;;;67.40;33.25;;;;;;;4.18;78.34;102902.97;5045440;28;20063;-63
2022/01/26 14:36:52;;;;;;;64.82;32.85;;;;;;;4.38;77.63;102893.59;5032818;28;20057;-63